createdAt,value
2023-05-13T00:01:11.383Z,100449.56
2023-05-13T00:06:16.566Z,100445.00
2023-05-13T00:11:21.464Z,100448.22
2023-05-13T00:16:29.890Z,100461.28
2023-05-13T00:21:35.224Z,100433.94
2023-05-13T00:26:40.173Z,100435.06
2023-05-13T00:31:46.198Z,100418.06
2023-05-13T00:36:50.980Z,100424.72
2023-05-13T00:41:55.819Z,100409.72
2023-05-13T00:47:01.105Z,100401.84
2023-05-13T00:52:06.811Z,100399.63
2023-05-13T00:57:11.870Z,100396.66
2023-05-13T01:02:31.951Z,100392.75
2023-05-13T01:07:59.203Z,100400.63
2023-05-13T01:13:11.141Z,100402.69
2023-05-13T01:18:40.548Z,100394.22
2023-05-13T01:23:45.388Z,100381.81
2023-05-13T01:28:50.821Z,100401.69
2023-05-13T01:33:56.227Z,100372.38
2023-05-13T01:39:02.404Z,100363.16
2023-05-13T01:44:08.724Z,100356.00
2023-05-13T01:49:13.855Z,100360.81
2023-05-13T01:54:18.988Z,100356.81
2023-05-13T01:59:30.021Z,100343.00
2023-05-13T02:04:35.101Z,100343.16
2023-05-13T02:09:40.966Z,100344.69
2023-05-13T02:14:46.135Z,100343.22
2023-05-13T02:19:51.383Z,100324.81
2023-05-13T02:24:55.650Z,100319.38
2023-05-13T02:30:01.811Z,100334.34
2023-05-13T02:35:07.346Z,100296.34
2023-05-13T02:40:13.074Z,100291.59
2023-05-13T02:45:17.457Z,100281.25
2023-05-13T02:50:28.264Z,100272.66
2023-05-13T02:55:34.534Z,100260.66
2023-05-13T03:00:39.685Z,100247.81
2023-05-13T03:05:45.914Z,100268.44
2023-05-13T03:10:50.870Z,100247.13
2023-05-13T03:15:55.873Z,100232.13
2023-05-13T03:21:01.109Z,100218.78
2023-05-13T03:26:05.785Z,100220.56
2023-05-13T03:31:10.557Z,100202.84
2023-05-13T03:36:17.546Z,100189.41
2023-05-13T03:41:22.882Z,100176.47
2023-05-13T03:46:31.352Z,100177.06
2023-05-13T03:51:36.494Z,100152.34
2023-05-13T03:56:41.592Z,100150.81
2023-05-13T04:01:45.976Z,100125.81
2023-05-13T04:06:50.785Z,100115.59
2023-05-13T04:11:55.884Z,100111.63
2023-05-13T04:17:01.086Z,100098.16
2023-05-13T04:22:06.289Z,100089.88
2023-05-13T04:27:11.219Z,100086.66
2023-05-13T04:32:19.131Z,100069.94
2023-05-13T04:37:24.246Z,100068.59
2023-05-13T04:42:32.630Z,100072.22
2023-05-13T04:47:39.451Z,100051.69
2023-05-13T04:52:45.906Z,100049.81
2023-05-13T04:57:51.977Z,100041.72
2023-05-13T05:02:58.005Z,100036.34
2023-05-13T05:08:04.441Z,100030.97
2023-05-13T05:13:10.750Z,100002.56
2023-05-13T05:18:16.759Z,100000.69
2023-05-13T05:23:25.373Z,99981.22
2023-05-13T05:28:31.433Z,99987.75
2023-05-13T05:33:37.656Z,99984.78
2023-05-13T05:38:44.099Z,99965.03
2023-05-13T05:43:49.715Z,99950.41
2023-05-13T05:48:56.744Z,99947.16
2023-05-13T05:54:01.970Z,99929.81
2023-05-13T05:59:09.316Z,99926.81
2023-05-13T06:04:14.514Z,99915.97
2023-05-13T06:09:19.557Z,99907.03
2023-05-13T06:14:24.515Z,99895.09
2023-05-13T06:19:35.018Z,99879.91
2023-05-13T06:24:43.887Z,99878.28
2023-05-13T06:29:49.043Z,99871.19
2023-05-13T06:34:55.799Z,99858.41
2023-05-13T06:40:02.307Z,99841.81
2023-05-13T06:45:09.666Z,99837.13
2023-05-13T06:50:15.964Z,99829.72
2023-05-13T06:55:21.023Z,99838.41
2023-05-13T07:00:26.353Z,99812.63
2023-05-13T07:05:33.748Z,99809.78
2023-05-13T07:10:38.840Z,99806.19
2023-05-13T07:15:43.954Z,99805.88
2023-05-13T07:20:49.013Z,99790.41
2023-05-13T07:25:54.246Z,99823.19
2023-05-13T07:31:00.427Z,99781.63
2023-05-13T07:36:07.158Z,99773.75
2023-05-13T07:41:12.210Z,99781.53
2023-05-13T07:46:17.840Z,99776.63
2023-05-13T07:51:22.852Z,99787.78
2023-05-13T07:56:27.925Z,99773.91
2023-05-13T08:01:33.255Z,99776.88
2023-05-13T08:06:38.272Z,99766.25
2023-05-13T08:11:43.164Z,99758.94
2023-05-13T08:16:48.259Z,99761.34
2023-05-13T08:21:53.115Z,99770.00
2023-05-13T08:26:58.388Z,99784.63
2023-05-13T08:32:03.347Z,99772.56
2023-05-13T08:37:08.337Z,99781.22
2023-05-13T08:42:16.469Z,99778.44
2023-05-13T08:47:54.920Z,99780.00
2023-05-13T08:53:03.174Z,99786.84
2023-05-13T08:58:08.546Z,99775.44
2023-05-13T09:03:14.764Z,99786.09
2023-05-13T09:08:19.695Z,99773.47
2023-05-13T09:13:24.702Z,99779.66
2023-05-13T09:18:35.953Z,99785.06
2023-05-13T09:23:41.082Z,99788.78
2023-05-13T09:28:49.117Z,99783.75
2023-05-13T09:33:59.307Z,99790.91
2023-05-13T09:39:05.909Z,99798.09
2023-05-13T09:44:13.922Z,99806.44
2023-05-13T09:49:19.031Z,99806.59
2023-05-13T09:54:23.732Z,99795.63
2023-05-13T09:59:32.072Z,99801.72
2023-05-13T10:04:37.052Z,99801.81
2023-05-13T10:09:46.152Z,99801.38
2023-05-13T10:14:56.560Z,99807.66
2023-05-13T10:20:03.587Z,99822.34
2023-05-13T10:25:09.915Z,99829.13
2023-05-13T10:30:17.195Z,99823.75
2023-05-13T10:35:24.515Z,99849.22
2023-05-13T10:40:47.738Z,99840.59
2023-05-13T10:46:15.568Z,99840.56
2023-05-13T10:51:25.965Z,99826.25
2023-05-13T10:56:31.225Z,99837.06
2023-05-13T11:01:47.270Z,99833.84
2023-05-13T11:06:54.467Z,99833.56
2023-05-13T11:12:05.457Z,99843.84
2023-05-13T11:17:14.769Z,99825.97
2023-05-13T11:22:25.460Z,99823.84
2023-05-13T11:27:39.706Z,99815.97
2023-05-13T11:32:53.745Z,99816.22
2023-05-13T11:38:00.399Z,99818.38
2023-05-13T11:43:09.175Z,99822.41
2023-05-13T11:48:25.119Z,99838.88
2023-05-13T11:53:30.068Z,99834.25
2023-05-13T11:58:36.170Z,99838.03
2023-05-13T12:03:41.130Z,99845.84
2023-05-13T12:08:47.118Z,99858.78
2023-05-13T12:13:52.360Z,99867.41
2023-05-13T12:19:03.487Z,99864.13
2023-05-13T12:24:24.593Z,99876.75
2023-05-13T12:29:31.331Z,99878.63
2023-05-13T12:34:37.508Z,99876.69
2023-05-13T12:39:44.062Z,99887.69
2023-05-13T12:44:49.593Z,99906.00
2023-05-13T12:50:00.102Z,99890.34
2023-05-13T12:55:05.377Z,99902.19
2023-05-13T13:00:14.997Z,99883.00
2023-05-13T13:05:20.213Z,99884.56
2023-05-13T13:10:25.191Z,99885.38
2023-05-13T13:15:31.215Z,99906.66
2023-05-13T13:20:36.183Z,99886.09
2023-05-13T13:25:41.507Z,99878.47
2023-05-13T13:30:49.811Z,99867.84
2023-05-13T13:35:56.716Z,99870.47
2023-05-13T13:41:01.724Z,99872.00
2023-05-13T13:46:07.043Z,99864.88
2023-05-13T13:51:12.003Z,99851.06
2023-05-13T13:56:16.927Z,99851.00
2023-05-13T14:01:21.850Z,99858.63
2023-05-13T14:06:27.092Z,99861.22
2023-05-13T14:11:36.568Z,99857.34
2023-05-13T14:16:42.106Z,99863.41
2023-05-13T14:21:50.290Z,99896.97
2023-05-13T14:26:57.190Z,99880.19
2023-05-13T14:32:04.456Z,99885.50
2023-05-13T14:37:10.009Z,99881.09
2023-05-13T14:42:15.086Z,99883.16
2023-05-13T14:47:20.153Z,99883.09
2023-05-13T14:52:26.393Z,99887.34
2023-05-13T14:57:31.450Z,99892.41
2023-05-13T15:02:36.505Z,99885.03
2023-05-13T15:07:42.055Z,99882.28
2023-05-13T15:12:47.514Z,99873.66
2023-05-13T15:17:52.328Z,99888.91
2023-05-13T15:22:59.170Z,99882.88
2023-05-13T15:28:04.864Z,99879.03
2023-05-13T15:33:10.620Z,99881.66
2023-05-13T15:38:15.681Z,99914.09
2023-05-13T15:43:20.780Z,99872.06
2023-05-13T15:48:26.240Z,99849.91
2023-05-13T15:53:31.619Z,99872.88
2023-05-13T15:58:36.757Z,99847.47
2023-05-13T16:03:41.866Z,99846.47
2023-05-13T16:08:47.114Z,99832.94
2023-05-13T16:13:52.220Z,99827.22
2023-05-13T16:18:57.048Z,99819.09
2023-05-13T16:24:02.485Z,99826.22
2023-05-13T16:29:07.433Z,99848.22
2023-05-13T16:34:12.453Z,99863.50
2023-05-13T16:39:16.788Z,99864.81
2023-05-13T16:44:21.703Z,99892.69
2023-05-13T16:49:26.871Z,99890.84
2023-05-13T16:54:32.429Z,99886.84
2023-05-13T16:59:37.438Z,99867.25
2023-05-13T17:04:42.282Z,99827.44
2023-05-13T17:09:47.335Z,99800.19
2023-05-13T17:14:53.129Z,99783.75
2023-05-13T17:19:58.890Z,99753.56
2023-05-13T17:25:03.787Z,99733.22
2023-05-13T17:30:09.657Z,99724.13
2023-05-13T17:35:14.707Z,99746.91
2023-05-13T17:40:19.779Z,99749.84
2023-05-13T17:45:25.548Z,99747.38
2023-05-13T17:50:32.881Z,99752.41
2023-05-13T17:55:38.214Z,99760.13
2023-05-13T18:00:43.098Z,99768.63
2023-05-13T18:05:48.236Z,99766.22
2023-05-13T18:10:53.092Z,99756.53
2023-05-13T18:15:58.073Z,99747.91
2023-05-13T18:21:03.345Z,99722.13
2023-05-13T18:26:08.423Z,99721.53
2023-05-13T18:31:14.212Z,99714.22
2023-05-13T18:36:19.225Z,99710.38
2023-05-13T18:41:24.175Z,99703.03
2023-05-13T18:46:29.397Z,99708.56
2023-05-13T18:51:35.304Z,99697.00
2023-05-13T18:56:40.209Z,99691.50
2023-05-13T19:01:45.388Z,99708.31
2023-05-13T19:06:50.658Z,99684.69
2023-05-13T19:11:55.744Z,99694.72
2023-05-13T19:17:00.772Z,99710.72
2023-05-13T19:22:05.949Z,99694.06
2023-05-13T19:27:11.503Z,99689.50
2023-05-13T19:32:16.415Z,99673.66
2023-05-13T19:37:21.393Z,99660.94
2023-05-13T19:42:26.658Z,99651.78
2023-05-13T19:47:31.880Z,99661.81
2023-05-13T19:52:36.824Z,99654.13
2023-05-13T19:57:43.450Z,99645.75
2023-05-13T20:02:48.234Z,99648.34
2023-05-13T20:07:53.023Z,99661.88
2023-05-13T20:12:57.893Z,99661.97
2023-05-13T20:18:02.950Z,99656.50
2023-05-13T20:23:08.075Z,99652.91
2023-05-13T20:28:13.049Z,99672.34
2023-05-13T20:33:18.130Z,99651.16
2023-05-13T20:38:23.823Z,99657.81
2023-05-13T20:43:28.761Z,99675.50
2023-05-13T20:48:36.171Z,99691.09
2023-05-13T20:53:41.465Z,99640.22
2023-05-13T20:58:45.857Z,99662.00
2023-05-13T21:03:50.355Z,99679.69
2023-05-13T21:08:55.528Z,99662.56
2023-05-13T21:14:00.787Z,99679.69
2023-05-13T21:19:05.820Z,99668.88
2023-05-13T21:24:11.015Z,99665.03
2023-05-13T21:29:17.379Z,99690.97
2023-05-13T21:34:24.041Z,99677.47
2023-05-13T21:39:29.175Z,99694.25
2023-05-13T21:44:34.034Z,99690.72
2023-05-13T21:49:38.893Z,99674.09
2023-05-13T21:54:43.835Z,99678.41
2023-05-13T21:59:48.732Z,99683.31
2023-05-13T22:04:53.855Z,99683.16
2023-05-13T22:09:59.003Z,99673.41
2023-05-13T22:15:03.988Z,99695.31
2023-05-13T22:20:09.740Z,99704.03
2023-05-13T22:25:15.706Z,99695.84
2023-05-13T22:30:21.065Z,99695.72
2023-05-13T22:35:26.101Z,99693.19
2023-05-13T22:40:30.985Z,99685.84
2023-05-13T22:45:35.955Z,99702.03
2023-05-13T22:50:41.604Z,99692.22
2023-05-13T22:55:46.856Z,99719.25
2023-05-13T23:00:52.201Z,99696.75
2023-05-13T23:05:58.258Z,99701.25
2023-05-13T23:11:02.598Z,99707.13
2023-05-13T23:16:09.274Z,99694.97
2023-05-13T23:21:14.277Z,99686.53
2023-05-13T23:26:19.158Z,99700.16
2023-05-13T23:31:24.038Z,99695.56
2023-05-13T23:36:29.424Z,99691.63
2023-05-13T23:41:36.205Z,99705.16
2023-05-13T23:46:40.623Z,99703.69
2023-05-13T23:51:45.609Z,99704.41
2023-05-13T23:56:50.631Z,99701.09
